Time;durP1;ratioP1;P1;durP2;ratioP2;P2;SDS_P1;SDS_P2;PMS_P1;PMS_P2;Temp;Humidity;BMP_temperature;BMP_pressure;BME280_temperature;BME280_humidity;BME280_pressure;Samples;Min_cycle;Max_cycle;Signal;HPM_P1;HPM_P2
2023/03/14 00:01:07;;;;;;;8.32;2.80;;;;;;;10.31;100.00;98830.56;5055890;28;20028;-68
2023/03/14 00:03:33;;;;;;;7.95;2.10;;;;;;;10.26;100.00;98811.56;5068131;28;20562;-68
2023/03/14 00:06:03;;;;;;;8.00;2.10;;;;;;;10.25;100.00;98833.16;5067555;28;20020;-67
2023/03/14 00:08:28;;;;;;;7.65;1.92;;;;;;;10.21;100.00;98834.00;5068285;28;20028;-67
2023/03/14 00:10:53;;;;;;;5.72;1.90;;;;;;;10.19;100.00;98822.78;5069164;28;20024;-67
2023/03/14 00:13:18;;;;;;;5.18;1.95;;;;;;;10.12;100.00;98821.03;5068452;28;20032;-68
2023/03/14 00:15:44;;;;;;;7.80;1.92;;;;;;;10.08;100.00;98813.28;5061363;28;20415;-67
2023/03/14 00:18:09;;;;;;;5.47;1.52;;;;;;;10.05;100.00;98826.22;5049126;28;20028;-68
2023/03/14 00:20:34;;;;;;;6.07;1.33;;;;;;;10.03;100.00;98827.94;5049041;28;20027;-67
2023/03/14 00:22:59;;;;;;;2.42;1.00;;;;;;;9.98;100.00;98840.00;5049086;28;20124;-67
2023/03/14 00:25:25;;;;;;;5.10;1.50;;;;;;;9.97;100.00;98838.25;5049371;28;20024;-67
2023/03/14 00:27:51;;;;;;;4.72;0.93;;;;;;;9.96;100.00;98847.75;5047565;28;20461;-67
2023/03/14 00:30:17;;;;;;;5.72;1.10;;;;;;;9.94;100.00;98844.31;5049478;28;20021;-67
2023/03/14 00:32:43;;;;;;;3.75;0.98;;;;;;;9.90;100.00;98846.84;5049490;28;20421;-67
2023/03/14 00:35:08;;;;;;;6.90;1.17;;;;;;;9.87;100.00;98857.22;5049262;28;20029;-68
2023/03/14 00:37:33;;;;;;;3.88;0.90;;;;;;;9.83;100.00;98856.34;5048486;28;20059;-67
2023/03/14 00:39:59;;;;;;;6.43;1.33;;;;;;;9.80;100.00;98849.44;5048480;28;20052;-67
2023/03/14 00:42:24;;;;;;;6.18;1.20;;;;;;;9.78;100.00;98858.91;5048272;28;20311;-67
2023/03/14 00:44:49;;;;;;;3.53;1.00;;;;;;;9.77;100.00;98856.31;5049035;28;20036;-67
2023/03/14 00:47:14;;;;;;;4.55;0.90;;;;;;;9.77;100.00;98854.59;5048936;28;20496;-67
2023/03/14 00:49:43;;;;;;;9.82;2.22;;;;;;;9.77;100.00;98862.34;5048963;28;20110;-67
2023/03/14 00:52:08;;;;;;;5.35;1.10;;;;;;;9.78;100.00;98863.22;5049136;28;20049;-67
2023/03/14 00:54:33;;;;;;;4.72;1.27;;;;;;;9.78;100.00;98864.09;5049223;28;20039;-67
2023/03/14 00:56:59;;;;;;;5.13;1.27;;;;;;;9.81;100.00;98869.25;5049060;28;20051;-67
2023/03/14 00:59:24;;;;;;;5.10;0.90;;;;;;;9.81;100.00;98852.88;5048674;28;20393;-67
2023/03/14 01:01:49;;;;;;;3.78;0.90;;;;;;;9.77;100.00;98851.16;5049757;28;20028;-68
2023/03/14 01:04:15;;;;;;;7.97;1.92;;;;;;;9.82;100.00;98855.47;5049410;28;20025;-67
2023/03/14 01:06:40;;;;;;;7.13;1.73;;;;;;;9.80;100.00;98859.78;5048805;28;20025;-68
2023/03/14 01:09:05;;;;;;;5.22;1.45;;;;;;;9.84;100.00;98848.56;5049253;28;20473;-68
2023/03/14 01:11:33;;;;;;;3.88;0.80;;;;;;;9.84;100.00;98845.97;5049365;28;20033;-68
2023/03/14 01:13:59;;;;;;;4.88;1.00;;;;;;;9.85;100.00;98849.44;5061428;28;20320;-67
2023/03/14 01:16:26;;;;;;;4.88;0.90;;;;;;;9.84;100.00;98851.16;5048806;28;20033;-67
2023/03/14 01:18:52;;;;;;;6.88;1.63;;;;;;;9.84;100.00;98851.16;5041979;28;20032;-67
2023/03/14 01:21:23;;;;;;;5.57;1.60;;;;;;;9.85;100.00;98839.97;5067321;28;20031;-68
2023/03/14 01:23:49;;;;;;;3.30;1.15;;;;;;;9.84;100.00;98835.63;5035585;28;20036;-67
2023/03/14 01:26:18;;;;;;;3.70;1.15;;;;;;;9.84;100.00;98833.06;5060255;28;20035;-68
2023/03/14 01:28:45;;;;;;;4.95;1.00;;;;;;;9.80;100.00;98840.81;5067426;28;20533;-67
2023/03/14 01:31:11;;;;;;;8.63;1.20;;;;;;;9.82;100.00;98844.28;5067146;28;20120;-67
2023/03/14 01:33:37;;;;;;;4.57;1.02;;;;;;;9.83;100.00;98833.06;5067786;28;20103;-67
2023/03/14 01:36:03;;;;;;;4.85;1.15;;;;;;;9.81;100.00;98832.19;5065609;28;20528;-67
2023/03/14 01:38:30;;;;;;;4.07;1.05;;;;;;;9.81;100.00;98833.03;5067343;28;20519;-67
2023/03/14 01:40:56;;;;;;;6.88;1.33;;;;;;;9.80;100.00;98821.00;5065958;28;20115;-67
2023/03/14 01:43:24;;;;;;;3.22;1.30;;;;;;;9.78;100.00;98804.59;5067565;28;20024;-68
2023/03/14 01:46:17;;;;;;;4.05;1.30;;;;;;;9.78;100.00;98812.34;5065588;28;20515;-67
2023/03/14 01:48:59;;;;;;;5.30;1.90;;;;;;;9.76;100.00;98811.47;5066962;28;20036;-67
2023/03/14 01:51:30;;;;;;;5.38;1.30;;;;;;;9.74;100.00;98795.09;5042198;28;20557;-67
2023/03/14 01:54:04;;;;;;;6.13;1.70;;;;;;;9.72;100.00;98796.81;5064807;28;20127;-67
2023/03/14 01:56:30;;;;;;;4.75;1.05;;;;;;;9.70;100.00;98796.81;5066831;28;20481;-67
2023/03/14 01:58:56;;;;;;;4.15;1.10;;;;;;;9.70;100.00;98793.34;5065832;28;20021;-67
2023/03/14 02:01:24;;;;;;;6.40;1.30;;;;;;;9.69;100.00;98789.03;5066978;28;20055;-67
2023/03/14 02:03:54;;;;;;;7.15;1.40;;;;;;;9.69;100.00;98796.81;5065687;28;20047;-67
2023/03/14 02:06:25;;;;;;;3.40;1.02;;;;;;;9.68;100.00;98795.06;5066916;28;20053;-67
2023/03/14 02:08:51;;;;;;;4.45;1.30;;;;;;;9.67;100.00;98790.75;5065906;28;20020;-67
2023/03/14 02:11:18;;;;;;;5.43;1.10;;;;;;;9.69;100.00;98791.63;5067090;28;20086;-67
2023/03/14 02:13:44;;;;;;;6.57;1.73;;;;;;;9.68;100.00;98795.06;5062948;28;20040;-67
2023/03/14 02:16:10;;;;;;;9.18;1.58;;;;;;;9.68;100.00;98789.88;5047808;28;20033;-67
2023/03/14 02:18:36;;;;;;;6.72;1.40;;;;;;;9.69;100.00;98789.03;5047650;28;20491;-67
2023/03/14 02:21:24;;;;;;;5.70;1.65;;;;;;;9.67;100.00;98789.03;5048526;28;20032;-67
2023/03/14 02:24:16;;;;;;;5.70;1.48;;;;;;;9.66;100.00;98786.47;5036634;28;20649;-68
2023/03/14 02:27:11;;;;;;;5.85;1.35;;;;;;;9.66;100.00;98779.53;5051931;28;20031;-67
2023/03/14 02:29:44;;;;;;;7.20;1.50;;;;;;;9.65;100.00;98790.75;5065933;28;20385;-67
2023/03/14 02:32:10;;;;;;;9.60;1.63;;;;;;;9.64;100.00;98788.16;5047706;28;20032;-67
2023/03/14 02:34:36;;;;;;;5.00;1.30;;;;;;;9.66;100.00;98770.94;5047510;28;20028;-67
2023/03/14 02:37:02;;;;;;;10.50;1.92;;;;;;;9.64;100.00;98770.94;5047542;28;20476;-68
2023/03/14 02:39:39;;;;;;;8.35;1.75;;;;;;;9.61;100.00;98768.31;5047556;28;20449;-67
2023/03/14 02:42:05;;;;;;;4.63;1.48;;;;;;;9.58;100.00;98774.38;5058460;28;20025;-67
2023/03/14 02:44:30;;;;;;;6.75;1.60;;;;;;;9.57;100.00;98782.13;5067023;28;20021;-67
2023/03/14 02:46:56;;;;;;;10.63;2.20;;;;;;;9.54;100.00;98782.97;5067452;28;20058;-67
2023/03/14 02:49:21;;;;;;;7.97;2.00;;;;;;;9.55;100.00;98764.00;5063597;28;20005;-67
2023/03/14 02:51:47;;;;;;;5.57;1.80;;;;;;;9.53;100.00;98770.91;5057978;28;20025;-67
2023/03/14 02:54:15;;;;;;;9.60;1.80;;;;;;;9.52;100.00;98768.28;5050244;28;20025;-67
2023/03/14 02:56:40;;;;;;;6.97;1.25;;;;;;;9.50;100.00;98770.88;5057598;28;20029;-67
2023/03/14 02:59:06;;;;;;;6.50;1.60;;;;;;;9.52;100.00;98766.56;5066802;28;20033;-68
2023/03/14 03:01:33;;;;;;;5.95;1.60;;;;;;;9.54;100.00;98766.56;5067224;28;20572;-67
2023/03/14 03:03:58;;;;;;;13.10;2.55;;;;;;;9.54;100.00;98770.03;5068029;28;20021;-68
2023/03/14 03:06:24;;;;;;;8.75;1.70;;;;;;;9.54;100.00;98779.50;5071484;28;20031;-67
2023/03/14 03:08:49;;;;;;;5.72;1.23;;;;;;;9.53;100.00;98776.06;5070621;28;20028;-67
2023/03/14 03:11:14;;;;;;;5.90;1.42;;;;;;;9.52;100.00;98774.31;5070461;28;20024;-67
2023/03/14 03:13:40;;;;;;;9.27;1.70;;;;;;;9.54;100.00;98782.97;5070411;28;20263;-67
2023/03/14 03:16:05;;;;;;;7.50;1.60;;;;;;;9.57;100.00;98785.53;5070285;28;20059;-67
2023/03/14 03:18:31;;;;;;;7.03;1.40;;;;;;;9.59;100.00;98778.66;5069636;28;20047;-67
2023/03/14 03:21:01;;;;;;;7.22;1.45;;;;;;;9.57;100.00;98772.63;5069980;28;20024;-67
2023/03/14 03:23:26;;;;;;;6.72;1.52;;;;;;;9.56;100.00;98770.91;5069085;28;20052;-67
2023/03/14 03:25:52;;;;;;;5.68;1.45;;;;;;;9.56;100.00;98773.50;5070031;28;20269;-67
2023/03/14 03:28:18;;;;;;;5.50;1.58;;;;;;;9.55;100.00;98761.41;5068547;28;20074;-67
2023/03/14 03:30:43;;;;;;;7.78;1.67;;;;;;;9.55;100.00;98757.97;5070141;28;20024;-67
2023/03/14 03:33:09;;;;;;;5.85;1.52;;;;;;;9.55;100.00;98758.81;5067629;28;20482;-67
2023/03/14 03:35:34;;;;;;;4.85;1.60;;;;;;;9.56;100.00;98763.16;5069920;28;20042;-67
2023/03/14 03:38:00;;;;;;;5.82;1.25;;;;;;;9.53;100.00;98760.56;5068715;28;20510;-67
2023/03/14 03:40:25;;;;;;;5.95;1.98;;;;;;;9.52;100.00;98763.13;5069987;28;20231;-67
2023/03/14 03:42:51;;;;;;;6.05;1.33;;;;;;;9.51;100.00;98766.56;5068548;28;20024;-66
2023/03/14 03:45:16;;;;;;;6.60;1.40;;;;;;;9.50;100.00;98760.53;5053055;28;20108;-67
2023/03/14 03:47:41;;;;;;;4.97;1.50;;;;;;;9.48;100.00;98757.94;5068045;28;20642;-67
2023/03/14 03:50:07;;;;;;;5.05;1.75;;;;;;;9.47;100.00;98750.19;5070440;28;20048;-67
2023/03/14 03:52:33;;;;;;;4.50;1.00;;;;;;;9.45;100.00;98746.72;5068711;28;20044;-67
2023/03/14 03:54:58;;;;;;;6.03;1.27;;;;;;;9.45;100.00;98741.56;5068918;28;20025;-67
2023/03/14 03:57:23;;;;;;;5.28;1.17;;;;;;;9.43;100.00;98754.47;5066912;28;20017;-68
2023/03/14 03:59:49;;;;;;;8.05;1.67;;;;;;;9.42;100.00;98746.72;5068833;28;20512;-68
2023/03/14 04:02:14;;;;;;;4.93;1.73;;;;;;;9.41;100.00;98750.19;5067603;28;20078;-67
2023/03/14 04:04:39;;;;;;;5.93;1.17;;;;;;;9.39;100.00;98749.31;5068610;28;20255;-67
2023/03/14 04:07:05;;;;;;;3.03;1.00;;;;;;;9.34;100.00;98750.16;5065807;28;20015;-67
2023/03/14 04:09:31;;;;;;;4.82;1.77;;;;;;;9.32;100.00;98738.06;5068237;28;20027;-68
2023/03/14 04:11:56;;;;;;;5.40;0.98;;;;;;;9.27;100.00;98738.06;5066142;28;20016;-67
2023/03/14 04:14:22;;;;;;;5.88;1.40;;;;;;;9.23;100.00;98736.31;5068499;28;20051;-67
2023/03/14 04:16:47;;;;;;;7.07;1.42;;;;;;;9.17;100.00;98739.75;5068565;28;20028;-67
2023/03/14 04:19:12;;;;;;;7.07;1.27;;;;;;;9.14;100.00;98737.13;5068741;28;20119;-67
2023/03/14 04:21:40;;;;;;;7.47;1.30;;;;;;;9.11;100.00;98742.28;5068695;28;20029;-67
2023/03/14 04:24:06;;;;;;;4.22;1.33;;;;;;;9.10;100.00;98740.59;5069041;28;20255;-67
2023/03/14 04:26:31;;;;;;;3.67;1.02;;;;;;;9.08;100.00;98737.13;5068557;28;20025;-67
2023/03/14 04:28:56;;;;;;;3.50;1.20;;;;;;;9.08;100.00;98735.41;5068406;28;20032;-67
2023/03/14 04:31:22;;;;;;;6.95;1.40;;;;;;;9.07;100.00;98731.09;5065702;28;20036;-67
2023/03/14 04:33:47;;;;;;;3.72;1.20;;;;;;;9.06;100.00;98734.53;5049306;28;20021;-67
2023/03/14 04:36:14;;;;;;;2.28;0.93;;;;;;;9.08;100.00;98731.97;5049651;28;20044;-67
2023/03/14 04:38:39;;;;;;;2.65;0.90;;;;;;;9.07;100.00;98725.03;5049228;28;20029;-67
2023/03/14 04:41:06;;;;;;;5.72;1.15;;;;;;;9.03;100.00;98729.34;5051249;28;20081;-67
2023/03/14 04:43:32;;;;;;;6.90;1.10;;;;;;;9.03;100.00;98726.75;5058775;28;20017;-67
2023/03/14 04:45:58;;;;;;;1.95;0.60;;;;;;;9.01;100.00;98724.16;5064638;28;20027;-66
2023/03/14 04:48:24;;;;;;;4.20;1.10;;;;;;;8.98;100.00;98731.03;5067982;28;20488;-67
2023/03/14 04:50:50;;;;;;;2.72;1.00;;;;;;;8.94;100.00;98730.16;5067725;28;20028;-67
2023/03/14 04:53:17;;;;;;;4.40;0.93;;;;;;;8.92;100.00;98726.72;5058920;28;20505;-67
2023/03/14 04:55:47;;;;;;;8.27;1.38;;;;;;;8.89;100.00;98737.91;5048344;28;20033;-67
2023/03/14 04:58:12;;;;;;;2.28;0.60;;;;;;;8.77;100.00;98728.38;5048760;28;20410;-67
2023/03/14 05:00:37;;;;;;;4.00;0.98;;;;;;;8.68;100.00;98732.59;5049272;28;20025;-68
2023/03/14 05:03:03;;;;;;;3.80;1.33;;;;;;;8.61;100.00;98737.75;5058020;28;20020;-67
2023/03/14 05:05:28;;;;;;;2.42;0.98;;;;;;;8.51;100.00;98728.16;5067344;28;20099;-67
2023/03/14 05:07:53;;;;;;;2.47;0.93;;;;;;;8.48;100.00;98741.06;5068613;28;20035;-67
2023/03/14 05:10:18;;;;;;;2.55;1.00;;;;;;;8.42;100.00;98731.53;5067517;28;20487;-67
2023/03/14 05:12:44;;;;;;;4.07;1.27;;;;;;;8.39;100.00;98739.28;5067670;28;20032;-67
2023/03/14 05:15:09;;;;;;;5.35;1.45;;;;;;;8.37;100.00;98739.25;5067563;28;20024;-67
2023/03/14 05:17:35;;;;;;;3.33;1.20;;;;;;;8.33;100.00;98726.34;5066306;28;20025;-67
2023/03/14 05:20:00;;;;;;;5.28;1.75;;;;;;;8.28;100.00;98726.28;5067091;28;20028;-67
2023/03/14 05:22:26;;;;;;;4.25;1.85;;;;;;;8.25;100.00;98731.44;5067405;28;20016;-67
2023/03/14 05:24:53;;;;;;;4.75;1.75;;;;;;;8.24;100.00;98732.28;5066603;28;20048;-67
2023/03/14 05:27:18;;;;;;;5.05;1.77;;;;;;;8.24;100.00;98732.28;5066336;28;20055;-67
2023/03/14 05:29:43;;;;;;;8.57;2.40;;;;;;;8.21;100.00;98722.81;5067040;28;20079;-66
2023/03/14 05:32:09;;;;;;;3.35;1.77;;;;;;;8.22;100.00;98719.34;5055780;28;20440;-67
2023/03/14 05:34:34;;;;;;;3.15;2.00;;;;;;;8.20;100.00;98720.22;5056287;28;20114;-67
2023/03/14 05:36:59;;;;;;;6.07;2.00;;;;;;;8.20;100.00;98715.06;5056737;28;20174;-67
2023/03/14 05:39:25;;;;;;;3.75;1.80;;;;;;;8.19;100.00;98709.00;5056104;28;20631;-66
2023/03/14 05:41:50;;;;;;;3.42;1.75;;;;;;;8.19;100.00;98708.16;5056782;28;20104;-67
2023/03/14 05:44:16;;;;;;;3.92;2.00;;;;;;;8.17;100.00;98709.00;5056321;28;20453;-67
2023/03/14 05:46:41;;;;;;;6.93;2.40;;;;;;;8.16;100.00;98703.84;5057356;28;20031;-67
2023/03/14 05:49:07;;;;;;;5.80;2.42;;;;;;;8.15;100.00;98696.94;5055226;28;20468;-67
2023/03/14 05:51:32;;;;;;;6.25;2.40;;;;;;;8.16;100.00;98698.69;5055476;28;20023;-67
2023/03/14 05:53:57;;;;;;;4.43;2.45;;;;;;;8.17;100.00;98700.41;5054940;28;20060;-67
2023/03/14 05:56:22;;;;;;;6.53;2.53;;;;;;;8.19;100.00;98701.28;5039635;28;20025;-67
2023/03/14 05:58:48;;;;;;;6.65;2.40;;;;;;;8.19;100.00;98697.81;5051980;28;20016;-67
2023/03/14 06:01:13;;;;;;;4.65;2.40;;;;;;;8.17;100.00;98701.28;5050799;28;20268;-67
2023/03/14 06:03:38;;;;;;;6.25;2.63;;;;;;;8.17;100.00;98695.25;5052840;28;20110;-67
2023/03/14 06:06:04;;;;;;;5.93;2.15;;;;;;;8.20;100.00;98702.16;5051982;28;20029;-67
2023/03/14 06:08:29;;;;;;;4.63;2.53;;;;;;;8.20;100.00;98686.66;5053919;28;20509;-67
2023/03/14 06:10:54;;;;;;;4.85;2.80;;;;;;;8.20;100.00;98694.41;5052128;28;20035;-67
2023/03/14 06:13:20;;;;;;;7.28;3.10;;;;;;;8.17;100.00;98690.94;5036511;28;20112;-67
2023/03/14 06:15:46;;;;;;;5.97;3.08;;;;;;;8.19;100.00;98695.25;5051818;28;20028;-67
2023/03/14 06:18:12;;;;;;;8.32;3.30;;;;;;;8.19;100.00;98700.41;5050182;28;20037;-67
2023/03/14 06:20:38;;;;;;;6.32;3.10;;;;;;;8.16;100.00;98699.56;5046712;28;20041;-67
2023/03/14 06:23:05;;;;;;;4.90;3.42;;;;;;;8.16;100.00;98699.56;5047484;28;20021;-67
2023/03/14 06:25:31;;;;;;;8.65;3.63;;;;;;;8.17;100.00;98698.69;5037035;28;20041;-66
2023/03/14 06:27:56;;;;;;;7.35;3.63;;;;;;;8.20;100.00;98702.16;5058223;28;20039;-67
2023/03/14 06:30:22;;;;;;;4.05;3.63;;;;;;;8.22;100.00;98693.56;5048286;28;20028;-67
2023/03/14 06:32:47;;;;;;;6.82;3.47;;;;;;;8.25;100.00;98698.75;5041552;28;20025;-67
2023/03/14 06:35:12;;;;;;;4.78;3.25;;;;;;;8.28;100.00;98697.91;5028705;28;20025;-67
2023/03/14 06:37:38;;;;;;;6.65;4.00;;;;;;;8.30;100.00;98706.53;5035631;28;20041;-67
2023/03/14 06:40:05;;;;;;;6.25;4.00;;;;;;;8.29;100.00;98704.81;5043894;28;20032;-67
2023/03/14 06:42:30;;;;;;;4.60;3.60;;;;;;;8.34;100.00;98710.84;5051265;28;20033;-67
2023/03/14 06:44:55;;;;;;;6.93;3.53;;;;;;;8.36;100.00;98714.31;5049929;28;20048;-67
2023/03/14 06:47:21;;;;;;;5.03;3.45;;;;;;;8.37;100.00;98716.03;5045801;28;20029;-67
2023/03/14 06:49:46;;;;;;;6.50;3.17;;;;;;;8.39;100.00;98722.06;5035563;28;20618;-67
2023/03/14 06:52:11;;;;;;;7.43;3.30;;;;;;;8.40;100.00;98718.63;5041248;28;20512;-67
2023/03/14 06:54:36;;;;;;;6.65;4.25;;;;;;;8.40;100.00;98715.22;5066299;28;20036;-67
2023/03/14 06:57:02;;;;;;;7.18;3.60;;;;;;;8.42;100.00;98716.06;5070306;28;20538;-68
2023/03/14 06:59:27;;;;;;;5.18;4.00;;;;;;;8.45;100.00;98716.09;5069243;28;20060;-67
2023/03/14 07:01:52;;;;;;;7.65;3.65;;;;;;;8.49;100.00;98712.66;5069282;28;20474;-67
2023/03/14 07:04:17;;;;;;;5.90;3.45;;;;;;;8.54;100.00;98723.03;5068126;28;20028;-67
2023/03/14 07:06:44;;;;;;;6.60;3.72;;;;;;;8.58;100.00;98729.97;5068669;28;20028;-68
2023/03/14 07:09:10;;;;;;;6.35;3.50;;;;;;;8.61;100.00;98727.41;5067551;28;20082;-68
2023/03/14 07:11:36;;;;;;;6.57;3.42;;;;;;;8.64;100.00;98732.59;5068495;28;20435;-67
2023/03/14 07:14:01;;;;;;;5.63;3.42;;;;;;;8.63;100.00;98727.44;5063284;28;20044;-67
2023/03/14 07:16:28;;;;;;;3.80;3.15;;;;;;;8.64;100.00;98732.59;5049043;28;20452;-67
2023/03/14 07:18:54;;;;;;;5.93;3.35;;;;;;;8.62;100.00;98742.03;5037293;28;20102;-67
2023/03/14 07:21:19;;;;;;;5.93;3.80;;;;;;;8.64;100.00;98748.09;5049424;28;20024;-67
2023/03/14 07:23:45;;;;;;;4.63;3.30;;;;;;;8.62;100.00;98752.38;5036789;28;20044;-67
2023/03/14 07:26:10;;;;;;;6.63;3.67;;;;;;;8.62;100.00;98760.13;5049480;28;20222;-66
2023/03/14 07:28:35;;;;;;;5.43;3.53;;;;;;;8.61;100.00;98767.84;5049142;28;20021;-67
2023/03/14 07:31:01;;;;;;;5.95;3.53;;;;;;;8.62;100.00;98801.44;5049999;28;20059;-66
2023/03/14 07:33:26;;;;;;;7.90;3.17;;;;;;;8.62;100.00;98837.56;5051419;28;20499;-66
2023/03/14 07:35:51;;;;;;;1.90;0.90;;;;;;;8.48;100.00;98849.47;5051082;28;20384;-67
2023/03/14 07:38:17;;;;;;;1.25;0.50;;;;;;;8.31;100.00;98863.06;5051925;28;20025;-66
2023/03/14 07:40:42;;;;;;;0.30;0.30;;;;;;;8.09;100.00;98869.75;5050455;28;20021;-67
2023/03/14 07:43:08;;;;;;;0.80;0.38;;;;;;;7.96;100.00;98876.47;5051503;28;20104;-67
2023/03/14 07:45:33;;;;;;;0.68;0.30;;;;;;;7.84;100.00;98893.56;5050776;28;20025;-66
2023/03/14 07:47:58;;;;;;;0.80;0.30;;;;;;;7.75;100.00;98899.47;5051444;28;20032;-66
2023/03/14 07:50:26;;;;;;;1.65;0.30;;;;;;;7.64;100.00;98907.06;5031273;28;20017;-67
2023/03/14 07:52:53;;;;;;;1.90;1.10;;;;;;;7.56;100.00;98921.56;5050143;28;20076;-67
2023/03/14 07:55:18;;;;;;;0.80;0.30;;;;;;;7.50;100.00;98929.22;5050842;28;20028;-67
2023/03/14 07:57:44;;;;;;;0.95;0.28;;;;;;;7.44;100.00;98930.88;5050359;28;20537;-66
2023/03/14 08:00:10;;;;;;;0.85;0.30;;;;;;;7.39;100.00;98944.53;5049827;28;20025;-67
2023/03/14 08:02:36;;;;;;;0.90;0.30;;;;;;;7.34;100.00;98939.28;5037721;28;20481;-67
2023/03/14 08:05:02;;;;;;;2.42;0.93;;;;;;;7.31;100.00;98953.00;5050274;28;20059;-66
2023/03/14 08:07:28;;;;;;;2.63;0.93;;;;;;;7.29;100.00;98961.53;5049896;28;20051;-67
2023/03/14 08:09:53;;;;;;;1.35;0.80;;;;;;;7.28;100.00;98964.97;5049408;28;20053;-67
2023/03/14 08:12:18;;;;;;;1.08;0.90;;;;;;;7.29;100.00;98972.72;5055533;28;20012;-66
2023/03/14 08:14:43;;;;;;;3.20;0.80;;;;;;;7.32;100.00;98985.66;5056340;28;20064;-66
2023/03/14 08:17:09;;;;;;;2.33;1.02;;;;;;;7.35;100.00;98996.84;5062725;28;20041;-66
2023/03/14 08:19:34;;;;;;;2.53;0.90;;;;;;;7.35;100.00;99000.31;5049308;28;20021;-66
2023/03/14 08:21:59;;;;;;;3.65;1.40;;;;;;;7.37;100.00;99015.78;5049421;28;20610;-66
2023/03/14 08:24:25;;;;;;;1.08;0.90;;;;;;;7.35;100.00;99013.19;5049234;28;20408;-67
2023/03/14 08:26:50;;;;;;;1.77;1.20;;;;;;;7.32;100.00;99029.47;5050168;28;20083;-66
2023/03/14 08:29:16;;;;;;;1.05;0.95;;;;;;;7.31;100.00;99047.47;5049475;28;20025;-67
2023/03/14 08:31:41;;;;;;;1.48;1.00;;;;;;;7.29;100.00;99046.56;5049468;28;20424;-66
2023/03/14 08:34:07;;;;;;;4.30;1.15;;;;;;;7.30;100.00;99066.38;5049362;28;20477;-66
2023/03/14 08:36:32;;;;;;;1.25;0.80;;;;;;;7.30;100.00;99071.50;5049435;28;20020;-66
2023/03/14 08:38:57;;;;;;;1.02;0.60;;;;;;;7.24;100.00;99072.28;5049461;28;20021;-67
2023/03/14 08:41:23;;;;;;;2.80;0.80;;;;;;;7.23;100.00;99085.13;5049865;28;20021;-67
2023/03/14 08:43:48;;;;;;;1.52;1.00;;;;;;;7.23;100.00;99091.16;5049541;28;20021;-66
2023/03/14 08:46:13;;;;;;;1.63;0.80;;;;;;;7.21;100.00;99087.69;5050174;28;20021;-67
2023/03/14 08:48:38;;;;;;;1.45;1.10;;;;;;;7.18;100.00;99109.09;5049467;28;20024;-66
2023/03/14 08:51:13;;;;;;;2.78;1.20;;;;;;;7.16;100.00;99121.06;5050115;28;20021;-66
2023/03/14 08:53:39;;;;;;;2.30;0.90;;;;;;;7.12;100.00;99129.63;5049420;28;20045;-66
2023/03/14 08:56:06;;;;;;;3.92;0.90;;;;;;;7.09;100.00;99142.41;5050148;28;20511;-66
2023/03/14 08:58:31;;;;;;;2.40;0.70;;;;;;;7.07;100.00;99141.50;5048589;28;20360;-67
2023/03/14 09:00:57;;;;;;;3.45;0.80;;;;;;;7.05;100.00;99141.47;5048472;28;20024;-66
2023/03/14 09:03:23;;;;;;;3.33;0.90;;;;;;;7.04;100.00;99155.22;5048078;28;20389;-66
2023/03/14 09:05:49;;;;;;;5.45;1.08;;;;;;;7.03;100.00;99163.78;5061656;28;20371;-66
2023/03/14 09:08:15;;;;;;;4.93;1.40;;;;;;;7.03;100.00;99175.78;5048709;28;20025;-67
2023/03/14 09:10:40;;;;;;;4.15;1.40;;;;;;;7.04;100.00;99177.53;5048760;28;20381;-67
2023/03/14 09:13:05;;;;;;;5.28;1.35;;;;;;;7.00;100.00;99192.03;5060338;28;20052;-66
2023/03/14 09:15:31;;;;;;;5.22;1.80;;;;;;;7.01;100.00;99198.94;5048788;28;20385;-67
2023/03/14 09:17:56;;;;;;;2.33;1.02;;;;;;;7.03;100.00;99206.69;5060731;28;20032;-67
2023/03/14 09:20:21;;;;;;;6.30;1.92;;;;;;;7.06;100.00;99211.91;5066746;28;20052;-67
2023/03/14 09:22:47;;;;;;;2.58;1.10;;;;;;;7.04;100.00;99219.59;5067364;28;20052;-66
2023/03/14 09:25:12;;;;;;;3.35;1.40;;;;;;;7.06;100.00;99241.13;5066305;28;20046;-67
2023/03/14 09:27:37;;;;;;;4.45;1.67;;;;;;;7.05;100.00;99249.66;5067766;28;20044;-67
2023/03/14 09:30:03;;;;;;;1.83;0.80;;;;;;;7.01;100.00;99262.47;5067008;28;20022;-67
2023/03/14 09:32:31;;;;;;;1.30;0.70;;;;;;;6.96;100.00;99273.53;5067934;28;20029;-66
2023/03/14 09:34:56;;;;;;;3.33;0.70;;;;;;;6.94;100.00;99275.19;5067202;28;20025;-66
2023/03/14 09:37:21;;;;;;;2.78;0.85;;;;;;;6.90;100.00;99288.88;5068206;28;20024;-67
2023/03/14 09:39:47;;;;;;;1.88;1.08;;;;;;;6.87;100.00;99301.69;5067473;28;20036;-66
2023/03/14 09:42:18;;;;;;;1.70;0.50;;;;;;;6.80;100.00;99312.66;5067331;28;20419;-66
2023/03/14 09:45:07;;;;;;;1.25;0.40;;;;;;;6.66;100.00;99330.34;5067329;28;20427;-66
2023/03/14 09:47:34;;;;;;;1.02;0.30;;;;;;;6.58;100.00;99349.03;5064394;28;20048;-66
2023/03/14 09:50:03;;;;;;;2.42;0.30;;;;;;;6.53;100.00;99360.09;5048124;28;20021;-66
2023/03/14 09:52:36;;;;;;;1.40;0.65;;;;;;;6.46;100.00;99375.38;5048360;28;20362;-66
2023/03/14 09:55:05;;;;;;;0.82;0.30;;;;;;;6.42;100.00;99388.13;5047197;28;20033;-66
2023/03/14 09:57:33;;;;;;;1.02;0.30;;;;;;;6.37;100.00;99400.84;5053478;28;20029;-66
2023/03/14 10:00:13;;;;;;;1.13;0.30;;;;;;;6.39;100.00;99424.06;5055080;28;20031;-66
2023/03/14 10:02:41;;;;;;;1.25;0.40;;;;;;;6.42;100.00;99421.56;5055247;28;20039;-66
2023/03/14 10:05:18;;;;;;;1.30;0.38;;;;;;;6.42;100.00;99437.03;5064657;28;20029;-66
2023/03/14 10:07:44;;;;;;;2.53;0.47;;;;;;;6.47;100.00;99454.34;5047829;28;20031;-66
2023/03/14 10:10:17;;;;;;;2.50;0.55;;;;;;;6.60;100.00;99459.81;5047515;28;20024;-67
2023/03/14 10:12:45;;;;;;;3.22;0.73;;;;;;;6.75;100.00;99474.75;5056869;28;20051;-66
2023/03/14 10:15:14;;;;;;;1.45;0.50;;;;;;;6.85;100.00;99479.31;5067321;28;20032;-66
2023/03/14 10:17:48;;;;;;;3.70;0.82;;;;;;;6.88;100.00;99500.81;5067262;28;20024;-66
2023/03/14 10:20:34;;;;;;;4.25;0.55;;;;;;;6.84;100.00;99500.75;5067145;28;20020;-66
2023/03/14 10:23:13;;;;;;;3.38;0.93;;;;;;;6.84;100.00;99521.34;5066779;28;20044;-66
2023/03/14 10:25:44;;;;;;;2.65;0.63;;;;;;;6.83;100.00;99534.19;5047305;28;20124;-66
2023/03/14 10:28:48;;;;;;;5.70;1.00;;;;;;;6.82;100.00;99535.88;5047720;28;20029;-66
2023/03/14 10:31:14;;;;;;;4.80;0.73;;;;;;;6.80;100.00;99552.16;5047983;28;20503;-66
2023/03/14 10:33:40;;;;;;;2.47;0.95;;;;;;;6.75;100.00;99571.72;5048359;28;20063;-66
2023/03/14 10:36:19;;;;;;;6.47;1.63;;;;;;;6.64;100.00;99577.44;5049031;28;20056;-66
2023/03/14 10:38:44;;;;;;;4.05;0.88;;;;;;;6.60;100.00;99583.38;5047338;28;20033;-66
2023/03/14 10:41:27;;;;;;;5.60;1.20;;;;;;;6.55;100.00;99595.25;5048501;28;20083;-66
2023/03/14 10:43:59;;;;;;;1.85;0.82;;;;;;;6.47;100.00;99607.88;5048282;28;20416;-66
2023/03/14 10:46:29;;;;;;;3.97;0.95;;;;;;;6.42;100.00;99612.03;5047563;28;20071;-66
2023/03/14 10:48:55;;;;;;;5.75;1.23;;;;;;;6.39;100.00;99620.50;5047803;28;20082;-66
2023/03/14 10:51:29;;;;;;;5.85;1.23;;;;;;;6.36;100.00;99635.88;5035178;28;20021;-66
2023/03/14 10:54:04;;;;;;;3.15;0.75;;;;;;;6.38;100.00;99644.50;5046472;28;20033;-66
2023/03/14 10:56:37;;;;;;;4.68;1.13;;;;;;;6.46;100.00;99652.44;5047808;28;20440;-66
2023/03/14 10:59:06;;;;;;;8.63;1.27;;;;;;;6.56;100.00;99663.91;5048109;28;20235;-66
2023/03/14 11:01:32;;;;;;;10.57;1.52;;;;;;;6.65;100.00;99678.75;5047373;28;20036;-66
2023/03/14 11:04:16;;;;;;;2.90;1.35;;;;;;;6.73;100.00;99672.97;5047314;28;20037;-67
2023/03/14 11:06:48;;;;;;;12.65;2.05;;;;;;;6.84;100.00;99688.75;5047775;28;20029;-66
2023/03/14 11:09:23;;;;;;;8.68;2.20;;;;;;;6.89;100.00;99693.16;5036096;28;20024;-66
2023/03/14 11:11:48;;;;;;;7.07;1.75;;;;;;;6.91;100.00;99705.25;5050658;28;20411;-66
2023/03/14 11:14:49;;;;;;;8.25;1.63;;;;;;;6.91;100.00;99723.28;5066449;28;20032;-66
2023/03/14 11:17:18;;;;;;;9.63;2.22;;;;;;;6.97;100.00;99723.47;5064386;28;20046;-66
2023/03/14 11:19:54;;;;;;;10.50;2.00;;;;;;;7.05;100.00;99736.53;5065071;28;20025;-66
2023/03/14 11:22:38;;;;;;;6.07;2.10;;;;;;;7.06;100.00;99738.31;5066607;28;20028;-67
2023/03/14 11:25:29;;;;;;;10.02;2.10;;;;;;;7.07;100.00;99759.78;5062930;28;20115;-66
2023/03/14 11:28:17;;;;;;;9.88;1.75;;;;;;;6.99;100.00;99772.44;5050944;28;20035;-66
2023/03/14 11:30:53;;;;;;;9.82;1.85;;;;;;;6.88;100.00;99777.28;5050629;28;20025;-66
2023/03/14 11:33:31;;;;;;;11.23;2.25;;;;;;;6.74;100.00;99784.59;5050631;28;20021;-66
2023/03/14 11:36:06;;;;;;;10.10;1.88;;;;;;;6.63;100.00;99807.41;5049988;28;20485;-66